sensor_id;sensor_type;location;lat;lon;timestamp;pressure;altitude;pressure_sealevel;temperature;humidity
6869;BME280;3473;42.604;23.496;2022-08-25T00:01:13;57918.56;;;-140.19;90.23
6869;BME280;3473;42.604;23.496;2022-08-25T00:02:44;59426.50;;;-140.19;90.38
6869;BME280;3473;42.604;23.496;2022-08-25T00:04:17;60432.19;;;-140.19;90.45
6869;BME280;3473;42.604;23.496;2022-08-25T00:05:49;57416.06;;;-140.19;90.12
6869;BME280;3473;42.604;23.496;2022-08-25T00:07:21;55406.81;;;-140.19;89.97
6869;BME280;3473;42.604;23.496;2022-08-25T00:08:52;54402.63;;;-140.19;89.87
6869;BME280;3473;42.604;23.496;2022-08-25T00:10:24;54653.66;;;-140.19;89.91
6869;BME280;3473;42.604;23.496;2022-08-25T00:11:57;54402.63;;;-140.19;89.90
6869;BME280;3473;42.604;23.496;2022-08-25T00:13:29;53649.69;;;-140.19;89.82
6869;BME280;3473;42.604;23.496;2022-08-25T00:15:01;55406.81;;;-140.19;89.90
6869;BME280;3473;42.604;23.496;2022-08-25T00:16:32;55155.75;;;-140.19;89.91
6869;BME280;3473;42.604;23.496;2022-08-25T00:18:04;56160.16;;;-140.19;89.96
6869;BME280;3473;42.604;23.496;2022-08-25T00:19:37;57164.84;;;-140.19;90.06
6869;BME280;3473;42.604;23.496;2022-08-25T00:21:08;59175.16;;;-140.19;90.25
6869;BME280;3473;42.604;23.496;2022-08-25T00:22:40;57164.84;;;-140.19;90.12
6869;BME280;3473;42.604;23.496;2022-08-25T00:24:14;57918.56;;;-140.19;90.25
6869;BME280;3473;42.604;23.496;2022-08-25T00:25:47;59175.16;;;-140.19;90.35
6869;BME280;3473;42.604;23.496;2022-08-25T00:27:20;56411.28;;;-140.19;90.04
6869;BME280;3473;42.604;23.496;2022-08-25T00:28:52;56913.66;;;-140.19;90.10
6869;BME280;3473;42.604;23.496;2022-08-25T00:30:24;57416.06;;;-140.19;90.22
6869;BME280;3473;42.604;23.496;2022-08-25T00:31:57;60683.66;;;-140.19;90.54
6869;BME280;3473;42.604;23.496;2022-08-25T00:33:29;58421.16;;;-140.19;90.24
6869;BME280;3473;42.604;23.496;2022-08-25T00:35:01;59929.31;;;-140.19;90.41
6869;BME280;3473;42.604;23.496;2022-08-25T00:36:33;59929.31;;;-140.19;90.51
6869;BME280;3473;42.604;23.496;2022-08-25T00:38:05;58672.47;;;-140.19;90.32
6869;BME280;3473;42.604;23.496;2022-08-25T00:39:38;57164.84;;;-140.19;90.21
6869;BME280;3473;42.604;23.496;2022-08-25T00:41:12;59175.16;;;-140.19;90.44
6869;BME280;3473;42.604;23.496;2022-08-25T00:42:46;60180.75;;;-140.19;90.45
6869;BME280;3473;42.604;23.496;2022-08-25T00:44:18;62192.81;;;-140.19;90.70
6869;BME280;3473;42.604;23.496;2022-08-25T00:45:50;61438.16;;;-140.19;90.64
6869;BME280;3473;42.604;23.496;2022-08-25T00:47:21;61689.69;;;-140.19;90.65
6869;BME280;3473;42.604;23.496;2022-08-25T00:48:58;62696.03;;;-140.19;90.79
6869;BME280;3473;42.604;23.496;2022-08-25T00:50:32;65716.84;;;-140.19;91.10
6869;BME280;3473;42.604;23.496;2022-08-25T00:52:08;67984.19;;;-140.19;91.38
6869;BME280;3473;42.604;23.496;2022-08-25T00:53:41;66220.56;;;-140.19;91.15
6869;BME280;3473;42.604;23.496;2022-08-25T00:55:16;67228.25;;;-140.19;91.21
6869;BME280;3473;42.604;23.496;2022-08-25T00:56:50;66976.28;;;-140.19;91.23
6869;BME280;3473;42.604;23.496;2022-08-25T00:58:25;69496.59;;;-140.19;91.55
6869;BME280;3473;42.604;23.496;2022-08-25T00:59:58;71009.69;;;-140.19;91.67
6869;BME280;3473;42.604;23.496;2022-08-25T01:01:30;71514.19;;;-140.19;91.77
6869;BME280;3473;42.604;23.496;2022-08-25T01:03:02;72271.09;;;-140.19;91.83
6869;BME280;3473;42.604;23.496;2022-08-25T01:04:34;73280.56;;;-140.19;91.98
6869;BME280;3473;42.604;23.496;2022-08-25T01:06:07;72018.78;;;-140.19;91.81
6869;BME280;3473;42.604;23.496;2022-08-25T01:07:42;71009.69;;;-140.19;91.70
6869;BME280;3473;42.604;23.496;2022-08-25T01:09:15;70253.06;;;-140.19;91.52
6869;BME280;3473;42.604;23.496;2022-08-25T01:10:48;70757.44;;;-140.19;91.62
6869;BME280;3473;42.604;23.496;2022-08-25T01:12:20;70253.06;;;-140.19;91.61
6869;BME280;3473;42.604;23.496;2022-08-25T01:13:55;69244.47;;;-140.19;91.43
6869;BME280;3473;42.604;23.496;2022-08-25T01:15:28;68992.38;;;-140.19;91.45
6869;BME280;3473;42.604;23.496;2022-08-25T01:17:00;69244.47;;;-140.19;91.46
6869;BME280;3473;42.604;23.496;2022-08-25T01:18:43;68740.31;;;-140.19;91.41
6869;BME280;3473;42.604;23.496;2022-08-25T01:20:17;68740.31;;;-140.19;91.42
6869;BME280;3473;42.604;23.496;2022-08-25T01:21:52;67228.25;;;-140.19;91.20
6869;BME280;3473;42.604;23.496;2022-08-25T01:23:25;68236.22;;;-140.19;91.34
6869;BME280;3473;42.604;23.496;2022-08-25T01:24:58;66220.56;;;-140.19;91.17
6869;BME280;3473;42.604;23.496;2022-08-25T01:26:34;65716.84;;;-140.19;91.06
6869;BME280;3473;42.604;23.496;2022-08-25T01:28:06;66976.28;;;-140.19;91.19
6869;BME280;3473;42.604;23.496;2022-08-25T01:29:37;67228.25;;;-140.19;91.22
6869;BME280;3473;42.604;23.496;2022-08-25T01:31:08;65716.84;;;-140.19;91.12
6869;BME280;3473;42.604;23.496;2022-08-25T01:32:39;67228.25;;;-140.19;91.23
6869;BME280;3473;42.604;23.496;2022-08-25T01:34:12;64206.09;;;-140.19;90.92
6869;BME280;3473;42.604;23.496;2022-08-25T01:35:45;63199.31;;;-140.19;90.83
6869;BME280;3473;42.604;23.496;2022-08-25T01:37:18;64961.38;;;-140.19;90.99
6869;BME280;3473;42.604;23.496;2022-08-25T01:38:50;67228.25;;;-140.19;91.28
6869;BME280;3473;42.604;23.496;2022-08-25T01:40:22;70505.25;;;-140.19;91.55
6869;BME280;3473;42.604;23.496;2022-08-25T01:42:07;71261.94;;;-140.19;91.68
6869;BME280;3473;42.604;23.496;2022-08-25T01:43:39;68488.25;;;-140.19;91.42
6869;BME280;3473;42.604;23.496;2022-08-25T01:45:10;68488.25;;;-140.19;91.39
6869;BME280;3473;42.604;23.496;2022-08-25T01:46:42;65213.19;;;-140.19;90.95
6869;BME280;3473;42.604;23.496;2022-08-25T01:48:15;58923.78;;;-140.19;90.39
6869;BME280;3473;42.604;23.496;2022-08-25T01:49:47;57164.84;;;-140.19;90.26
6869;BME280;3473;42.604;23.496;2022-08-25T01:51:20;55657.91;;;-140.19;90.07
6869;BME280;3473;42.604;23.496;2022-08-25T01:52:58;57416.06;;;-140.19;90.26
6869;BME280;3473;42.604;23.496;2022-08-25T01:54:31;59677.91;;;-140.19;90.36
6869;BME280;3473;42.604;23.496;2022-08-25T01:56:10;60432.19;;;-140.19;90.53
6869;BME280;3473;42.604;23.496;2022-08-25T01:57:43;57918.56;;;-140.19;90.28
6869;BME280;3473;42.604;23.496;2022-08-25T01:59:16;59929.31;;;-140.19;90.47
6869;BME280;3473;42.604;23.496;2022-08-25T02:00:51;62444.41;;;-140.19;90.74
6869;BME280;3473;42.604;23.496;2022-08-25T02:02:23;62444.41;;;-140.19;90.78
6869;BME280;3473;42.604;23.496;2022-08-25T02:03:55;63450.97;;;-140.19;90.85
6869;BME280;3473;42.604;23.496;2022-08-25T02:05:27;64206.09;;;-140.19;90.94
6869;BME280;3473;42.604;23.496;2022-08-25T02:07:00;66724.34;;;-140.19;91.19
6869;BME280;3473;42.604;23.496;2022-08-25T02:08:34;67984.19;;;-140.19;91.34
6869;BME280;3473;42.604;23.496;2022-08-25T02:10:07;66220.56;;;-140.19;91.22
6869;BME280;3473;42.604;23.496;2022-08-25T02:11:43;67984.19;;;-140.19;91.35
6869;BME280;3473;42.604;23.496;2022-08-25T02:13:16;70000.88;;;-140.19;91.49
6869;BME280;3473;42.604;23.496;2022-08-25T02:14:48;71009.69;;;-140.19;91.66
6869;BME280;3473;42.604;23.496;2022-08-25T02:16:23;70505.25;;;-140.19;91.65
6869;BME280;3473;42.604;23.496;2022-08-25T02:17:58;71514.19;;;-140.19;91.81
6869;BME280;3473;42.604;23.496;2022-08-25T02:19:30;72271.09;;;-140.19;91.93
6869;BME280;3473;42.604;23.496;2022-08-25T02:21:01;72018.78;;;-140.19;91.81
6869;BME280;3473;42.604;23.496;2022-08-25T02:22:32;73028.16;;;-140.19;91.98
6869;BME280;3473;42.604;23.496;2022-08-25T02:24:06;75552.94;;;-140.19;92.26
6869;BME280;3473;42.604;23.496;2022-08-25T02:25:42;77574.09;;;-140.19;92.49
6869;BME280;3473;42.604;23.496;2022-08-25T02:27:14;78332.34;;;-140.19;92.60
6869;BME280;3473;42.604;23.496;2022-08-25T02:28:47;80608.06;;;-140.19;92.91
6869;BME280;3473;42.604;23.496;2022-08-25T02:30:19;80861.00;;;-140.19;92.84
6869;BME280;3473;42.604;23.496;2022-08-25T02:31:51;80861.00;;;-140.19;92.82
6869;BME280;3473;42.604;23.496;2022-08-25T02:33:23;80608.06;;;-140.19;92.79
6869;BME280;3473;42.604;23.496;2022-08-25T02:34:54;80355.13;;;-140.19;92.79
6869;BME280;3473;42.604;23.496;2022-08-25T02:36:26;78079.56;;;-140.19;92.46
6869;BME280;3473;42.604;23.496;2022-08-25T02:37:58;79849.31;;;-140.19;92.71
6869;BME280;3473;42.604;23.496;2022-08-25T02:39:31;80102.22;;;-140.19;92.67
6869;BME280;3473;42.604;23.496;2022-08-25T02:41:08;81114.00;;;-140.19;92.82
6869;BME280;3473;42.604;23.496;2022-08-25T02:42:41;81366.97;;;-140.19;92.90
6869;BME280;3473;42.604;23.496;2022-08-25T02:44:13;81619.97;;;-140.19;92.91
6869;BME280;3473;42.604;23.496;2022-08-25T02:45:45;81114.00;;;-140.19;92.82
6869;BME280;3473;42.604;23.496;2022-08-25T02:47:17;81873.00;;;-140.19;92.91
6869;BME280;3473;42.604;23.496;2022-08-25T02:48:49;81114.00;;;-140.19;92.87
6869;BME280;3473;42.604;23.496;2022-08-25T02:50:22;79849.31;;;-140.19;92.71
6869;BME280;3473;42.604;23.496;2022-08-25T02:51:54;74542.81;;;-140.19;92.03
6869;BME280;3473;42.604;23.496;2022-08-25T02:53:28;71766.47;;;-140.19;91.65
6869;BME280;3473;42.604;23.496;2022-08-25T02:55:02;73280.56;;;-140.19;91.88
6869;BME280;3473;42.604;23.496;2022-08-25T02:56:34;73280.56;;;-140.19;91.91
6869;BME280;3473;42.604;23.496;2022-08-25T02:58:05;75047.84;;;-140.19;92.15
6869;BME280;3473;42.604;23.496;2022-08-25T02:59:38;77826.81;;;-140.19;92.51
6869;BME280;3473;42.604;23.496;2022-08-25T03:01:11;79596.44;;;-140.19;92.72
6869;BME280;3473;42.604;23.496;2022-08-25T03:02:43;81619.97;;;-140.19;93.10
6869;BME280;3473;42.604;23.496;2022-08-25T03:04:16;82632.19;;;-140.19;93.22
6869;BME280;3473;42.604;23.496;2022-08-25T03:05:48;83391.56;;;-140.19;93.33
6869;BME280;3473;42.604;23.496;2022-08-25T03:07:20;83644.72;;;-140.19;93.33
6869;BME280;3473;42.604;23.496;2022-08-25T03:08:52;83391.56;;;-140.19;93.35
6869;BME280;3473;42.604;23.496;2022-08-25T03:10:24;82632.19;;;-140.19;93.14
6869;BME280;3473;42.604;23.496;2022-08-25T03:11:56;84151.06;;;-140.19;93.44
6869;BME280;3473;42.604;23.496;2022-08-25T03:13:28;84910.78;;;-140.19;93.56
6869;BME280;3473;42.604;23.496;2022-08-25T03:14:58;85164.03;;;-140.19;93.52
6869;BME280;3473;42.604;23.496;2022-08-25T03:16:30;85670.63;;;-140.19;93.72
6869;BME280;3473;42.604;23.496;2022-08-25T03:18:04;85417.31;;;-140.19;93.60
6869;BME280;3473;42.604;23.496;2022-08-25T03:19:36;87697.75;;;-140.19;94.00
6869;BME280;3473;42.604;23.496;2022-08-25T03:21:07;89218.84;;;-140.19;94.25
6869;BME280;3473;42.604;23.496;2022-08-25T03:22:39;89472.44;;;-140.19;94.38
6869;BME280;3473;42.604;23.496;2022-08-25T03:24:11;92009.31;;;-140.19;94.73
6869;BME280;3473;42.604;23.496;2022-08-25T03:25:45;91755.53;;;-140.19;94.81
6869;BME280;3473;42.604;23.496;2022-08-25T03:27:34;91248.03;;;-140.19;94.77
6869;BME280;3473;42.604;23.496;2022-08-25T03:29:05;93786.22;;;-140.19;95.25
6869;BME280;3473;42.604;23.496;2022-08-25T03:30:37;93786.22;;;-140.19;95.24
6869;BME280;3473;42.604;23.496;2022-08-25T03:32:08;93786.22;;;-140.19;95.28
6869;BME280;3473;42.604;23.496;2022-08-25T03:33:40;94294.06;;;-140.19;95.30
6869;BME280;3473;42.604;23.496;2022-08-25T03:35:12;95564.03;;;-140.19;95.57
6869;BME280;3473;42.604;23.496;2022-08-25T03:36:46;97088.59;;;-140.19;95.94
6869;BME280;3473;42.604;23.496;2022-08-25T03:38:18;98105.34;;;-140.19;96.17
6869;BME280;3473;42.604;23.496;2022-08-25T03:39:48;98868.13;;;-140.19;96.42
6869;BME280;3473;42.604;23.496;2022-08-25T03:41:24;98359.59;;;-140.19;96.25
6869;BME280;3473;42.604;23.496;2022-08-25T03:42:57;98105.34;;;-140.19;96.21
6869;BME280;3473;42.604;23.496;2022-08-25T03:44:29;97342.75;;;-140.19;96.07
6869;BME280;3473;42.604;23.496;2022-08-25T03:46:01;97088.59;;;-140.19;95.98
6869;BME280;3473;42.604;23.496;2022-08-25T03:47:33;95564.03;;;-140.19;95.74
6869;BME280;3473;42.604;23.496;2022-08-25T03:49:06;91755.53;;;-140.19;94.95
6869;BME280;3473;42.604;23.496;2022-08-25T03:50:43;90233.31;;;-140.19;94.68
6869;BME280;3473;42.604;23.496;2022-08-25T03:52:15;89726.03;;;-140.19;94.61
6869;BME280;3473;42.604;23.496;2022-08-25T03:53:47;88458.22;;;-140.19;94.36
6869;BME280;3473;42.604;23.496;2022-08-25T03:55:19;88965.28;;;-140.19;94.43
6869;BME280;3473;42.604;23.496;2022-08-25T03:56:53;89472.44;;;-140.19;94.55
6869;BME280;3473;42.604;23.496;2022-08-25T03:58:25;89218.84;;;-140.19;94.46
6869;BME280;3473;42.604;23.496;2022-08-25T03:59:57;87697.75;;;-140.19;94.21
6869;BME280;3473;42.604;23.496;2022-08-25T04:01:28;86684.03;;;-140.19;94.05
6869;BME280;3473;42.604;23.496;2022-08-25T04:03:00;87190.84;;;-140.19;94.08
6869;BME280;3473;42.604;23.496;2022-08-25T04:04:35;87190.84;;;-140.19;94.19
6869;BME280;3473;42.604;23.496;2022-08-25T04:06:07;87444.28;;;-140.19;94.07
6869;BME280;3473;42.604;23.496;2022-08-25T04:07:39;86684.03;;;-140.19;93.95
6869;BME280;3473;42.604;23.496;2022-08-25T04:09:11;84910.78;;;-140.19;93.70
6869;BME280;3473;42.604;23.496;2022-08-25T04:10:43;82126.06;;;-140.19;93.28
6869;BME280;3473;42.604;23.496;2022-08-25T04:12:15;81114.00;;;-140.19;93.16
6869;BME280;3473;42.604;23.496;2022-08-25T04:13:47;79090.75;;;-140.19;92.84
6869;BME280;3473;42.604;23.496;2022-08-25T04:15:19;77068.69;;;-140.19;92.65
6869;BME280;3473;42.604;23.496;2022-08-25T04:16:51;76816.03;;;-140.19;92.51
6869;BME280;3473;42.604;23.496;2022-08-25T04:18:23;74290.31;;;-140.19;92.15
6869;BME280;3473;42.604;23.496;2022-08-25T04:19:55;72271.09;;;-140.19;91.98
6869;BME280;3473;42.604;23.496;2022-08-25T04:21:27;69748.72;;;-140.19;91.67
6869;BME280;3473;42.604;23.496;2022-08-25T04:22:59;63702.66;;;-140.19;90.93
6869;BME280;3473;42.604;23.496;2022-08-25T04:24:32;58672.47;;;-140.19;90.37
6869;BME280;3473;42.604;23.496;2022-08-25T04:26:07;59175.16;;;-140.19;90.67
6869;BME280;3473;42.604;23.496;2022-08-25T04:27:40;63954.38;;;-140.19;91.04
6869;BME280;3473;42.604;23.496;2022-08-25T04:29:14;67984.19;;;-140.19;91.44
6869;BME280;3473;42.604;23.496;2022-08-25T04:30:46;71261.94;;;-140.19;91.86
6869;BME280;3473;42.604;23.496;2022-08-25T04:32:18;73280.56;;;-140.19;92.08
6869;BME280;3473;42.604;23.496;2022-08-25T04:33:50;74290.31;;;-140.19;92.08
6869;BME280;3473;42.604;23.496;2022-08-25T04:35:21;72271.09;;;-140.19;91.91
6869;BME280;3473;42.604;23.496;2022-08-25T04:36:53;71261.94;;;-140.19;91.75
6869;BME280;3473;42.604;23.496;2022-08-25T04:38:25;71009.69;;;-140.19;91.75
6869;BME280;3473;42.604;23.496;2022-08-25T04:39:57;70253.06;;;-140.19;91.65
6869;BME280;3473;42.604;23.496;2022-08-25T04:41:28;68488.25;;;-140.19;91.40
6869;BME280;3473;42.604;23.496;2022-08-25T04:43:02;63199.31;;;-140.19;90.74
6869;BME280;3473;42.604;23.496;2022-08-25T04:44:33;58672.47;;;-140.19;90.38
6869;BME280;3473;42.604;23.496;2022-08-25T04:46:06;55406.81;;;-140.19;89.96
6869;BME280;3473;42.604;23.496;2022-08-25T04:47:38;58923.78;;;-140.19;90.32
6869;BME280;3473;42.604;23.496;2022-08-25T04:49:10;57416.06;;;-140.19;90.17
6869;BME280;3473;42.604;23.496;2022-08-25T04:50:41;58923.78;;;-140.19;90.25
6869;BME280;3473;42.604;23.496;2022-08-25T04:52:13;52646.03;;;-140.19;89.56
6869;BME280;3473;42.604;23.496;2022-08-25T04:53:45;50081.38;;;-140.19;89.27
6869;BME280;3473;42.604;23.496;2022-08-25T04:55:17;43777.00;;;-140.19;88.85
6869;BME280;3473;42.604;23.496;2022-08-25T04:56:50;40736.63;;;-140.19;88.54
6869;BME280;3473;42.604;23.496;2022-08-25T04:58:24;40482.75;;;-140.19;88.54
6869;BME280;3473;42.604;23.496;2022-08-25T04:59:56;42154.88;;;-140.19;88.67
6869;BME280;3473;42.604;23.496;2022-08-25T05:01:27;40795.22;;;-140.19;88.58
6869;BME280;3473;42.604;23.496;2022-08-25T05:02:59;34759.69;;;-140.19;87.91
6869;BME280;3473;42.604;23.496;2022-08-25T05:04:32;31719.69;;;-140.19;87.37
6869;BME280;3473;42.604;23.496;2022-08-25T05:06:05;32590.50;;;-140.19;87.55
6869;BME280;3473;42.604;23.496;2022-08-25T05:07:37;30333.13;;;-140.19;87.17
6869;BME280;3473;42.604;23.496;2022-08-25T05:09:10;27659.00;;;-140.19;86.40
6869;BME280;3473;42.604;23.496;2022-08-25T05:10:41;25564.41;;;-140.19;85.81
6869;BME280;3473;42.604;23.496;2022-08-25T05:12:13;26472.47;;;-140.19;86.17
6869;BME280;3473;42.604;23.496;2022-08-25T05:13:49;26715.59;;;-140.19;86.25
6869;BME280;3473;42.604;23.496;2022-08-25T05:15:21;27172.66;;;-140.19;86.32
6869;BME280;3473;42.604;23.496;2022-08-25T05:17:10;30023.56;;;-140.19;87.06
6869;BME280;3473;42.604;23.496;2022-08-25T05:18:42;32265.13;;;-140.19;87.41
6869;BME280;3473;42.604;23.496;2022-08-25T05:20:14;31337.94;;;-140.19;87.24
6869;BME280;3473;42.604;23.496;2022-08-25T05:21:45;31910.59;;;-140.19;87.35
6869;BME280;3473;42.604;23.496;2022-08-25T05:23:17;31341.84;;;-140.19;87.19
6869;BME280;3473;42.604;23.496;2022-08-25T05:24:48;31318.47;;;-140.19;87.27
6869;BME280;3473;42.604;23.496;2022-08-25T05:26:21;31334.03;;;-140.19;87.12
6869;BME280;3473;42.604;23.496;2022-08-25T05:27:52;29180.69;;;-140.19;86.76
6869;BME280;3473;42.604;23.496;2022-08-25T05:29:25;30107.28;;;-140.19;86.88
6869;BME280;3473;42.604;23.496;2022-08-25T05:30:59;29556.34;;;-140.19;86.75
6869;BME280;3473;42.604;23.496;2022-08-25T05:32:31;27161.00;;;-140.19;86.13
6869;BME280;3473;42.604;23.496;2022-08-25T05:34:04;27207.69;;;-140.19;86.12
6869;BME280;3473;42.604;23.496;2022-08-25T05:35:37;25688.81;;;-140.19;85.54
6869;BME280;3473;42.604;23.496;2022-08-25T05:37:08;24928.69;;;-140.19;85.32
6869;BME280;3473;42.604;23.496;2022-08-25T05:38:40;24147.34;;;-140.19;84.97
6869;BME280;3473;42.604;23.496;2022-08-25T05:40:12;24438.88;;;-140.19;85.09
6869;BME280;3473;42.604;23.496;2022-08-25T05:41:44;24460.25;;;-140.19;84.98
6869;BME280;3473;42.604;23.496;2022-08-25T05:43:16;23958.84;;;-140.19;84.94
6869;BME280;3473;42.604;23.496;2022-08-25T05:44:48;23393.38;;;-140.19;84.28
6869;BME280;3473;42.604;23.496;2022-08-25T05:46:21;22993.16;;;-140.19;84.00
6869;BME280;3473;42.604;23.496;2022-08-25T05:47:53;23111.66;;;-140.19;83.98
6869;BME280;3473;42.604;23.496;2022-08-25T05:49:25;23331.22;;;-140.19;84.07
6869;BME280;3473;42.604;23.496;2022-08-25T05:50:59;23562.44;;;-140.19;84.28
6869;BME280;3473;42.604;23.496;2022-08-25T05:52:31;23651.81;;;-140.19;84.38
6869;BME280;3473;42.604;23.496;2022-08-25T05:54:02;23267.09;;;-140.19;84.09
6869;BME280;3473;42.604;23.496;2022-08-25T05:55:43;22940.72;;;-140.19;83.70
6869;BME280;3473;42.604;23.496;2022-08-25T05:57:15;22604.63;;;-140.19;83.07
6869;BME280;3473;42.604;23.496;2022-08-25T05:58:47;22004.47;;;-140.19;82.36
6869;BME280;3473;42.604;23.496;2022-08-25T06:00:21;21955.91;;;-140.19;81.96
6869;BME280;3473;42.604;23.496;2022-08-25T06:01:52;22004.47;;;-140.19;82.20
6869;BME280;3473;42.604;23.496;2022-08-25T06:03:42;21819.97;;;-140.19;81.82
6869;BME280;3473;42.604;23.496;2022-08-25T06:05:16;21814.13;;;-140.19;81.56
6869;BME280;3473;42.604;23.496;2022-08-25T06:06:48;21779.19;;;-140.19;81.38
6869;BME280;3473;42.604;23.496;2022-08-25T06:08:23;21559.72;;;-140.19;81.33
6869;BME280;3473;42.604;23.496;2022-08-25T06:09:59;21703.44;;;-140.19;81.24
6869;BME280;3473;42.604;23.496;2022-08-25T06:11:31;21454.88;;;-140.19;81.05
6869;BME280;3473;42.604;23.496;2022-08-25T06:13:03;21761.69;;;-140.19;81.23
6869;BME280;3473;42.604;23.496;2022-08-25T06:14:35;21812.19;;;-140.19;81.32
6869;BME280;3473;42.604;23.496;2022-08-25T06:16:09;21676.25;;;-140.19;81.41
6869;BME280;3473;42.604;23.496;2022-08-25T06:17:40;21373.31;;;-140.19;81.09
6869;BME280;3473;42.604;23.496;2022-08-25T06:19:12;21515.06;;;-140.19;80.82
6869;BME280;3473;42.604;23.496;2022-08-25T06:20:44;21291.75;;;-140.19;80.26
6869;BME280;3473;42.604;23.496;2022-08-25T06:22:16;21136.44;;;-140.19;79.86
6869;BME280;3473;42.604;23.496;2022-08-25T06:23:48;21064.59;;;-140.19;79.88
6869;BME280;3473;42.604;23.496;2022-08-25T06:25:22;20932.56;;;-140.19;79.52
6869;BME280;3473;42.604;23.496;2022-08-25T06:26:54;20961.69;;;-140.19;79.42
6869;BME280;3473;42.604;23.496;2022-08-25T06:28:26;21105.34;;;-140.19;79.59
6869;BME280;3473;42.604;23.496;2022-08-25T06:29:57;21118.94;;;-140.19;79.46
6869;BME280;3473;42.604;23.496;2022-08-25T06:31:34;20994.69;;;-140.19;78.49
6869;BME280;3473;42.604;23.496;2022-08-25T06:33:06;21002.47;;;-140.19;78.70
6869;BME280;3473;42.604;23.496;2022-08-25T06:34:38;20736.47;;;-140.19;78.20
6869;BME280;3473;42.604;23.496;2022-08-25T06:36:10;20911.19;;;-140.19;78.29
6869;BME280;3473;42.604;23.496;2022-08-25T06:37:42;20917.03;;;-140.19;78.07
6869;BME280;3473;42.604;23.496;2022-08-25T06:39:14;20781.13;;;-140.19;77.97
6869;BME280;3473;42.604;23.496;2022-08-25T06:40:46;20790.84;;;-140.19;77.66
6869;BME280;3473;42.604;23.496;2022-08-25T06:42:17;20773.34;;;-140.19;77.67
6869;BME280;3473;42.604;23.496;2022-08-25T06:43:50;20709.28;;;-140.19;77.28
6869;BME280;3473;42.604;23.496;2022-08-25T06:45:21;20590.88;;;-140.19;77.17
6869;BME280;3473;42.604;23.496;2022-08-25T06:46:54;20814.13;;;-140.19;78.13
6869;BME280;3473;42.604;23.496;2022-08-25T06:48:26;20709.28;;;-140.19;77.81
6869;BME280;3473;42.604;23.496;2022-08-25T06:49:58;20918.97;;;-140.19;77.77
6869;BME280;3473;42.604;23.496;2022-08-25T06:51:30;20965.56;;;-140.19;78.16
6869;BME280;3473;42.604;23.496;2022-08-25T06:53:02;20759.78;;;-140.19;77.47
6869;BME280;3473;42.604;23.496;2022-08-25T06:54:34;20653.00;;;-140.19;77.41
6869;BME280;3473;42.604;23.496;2022-08-25T06:56:06;20777.25;;;-140.19;76.72
6869;BME280;3473;42.604;23.496;2022-08-25T06:57:38;20359.84;;;-140.19;75.47
6869;BME280;3473;42.604;23.496;2022-08-25T06:59:09;20449.16;;;-140.19;75.44
6869;BME280;3473;42.604;23.496;2022-08-25T07:00:43;20229.81;;;-140.19;74.82
6869;BME280;3473;42.604;23.496;2022-08-25T07:02:16;20379.28;;;-140.19;74.22
6869;BME280;3473;42.604;23.496;2022-08-25T07:03:48;20357.91;;;-140.19;73.58
6869;BME280;3473;42.604;23.496;2022-08-25T07:05:21;20462.75;;;-140.19;73.25
6869;BME280;3473;42.604;23.496;2022-08-25T07:06:52;20322.97;;;-140.19;72.10
6869;BME280;3473;42.604;23.496;2022-08-25T07:08:24;20313.28;;;-140.19;72.08
6869;BME280;3473;42.604;23.496;2022-08-25T07:09:56;20289.97;;;-140.19;72.24
6869;BME280;3473;42.604;23.496;2022-08-25T07:11:28;20198.75;;;-140.19;70.14
6869;BME280;3473;42.604;23.496;2022-08-25T07:13:03;20090.03;;;-140.19;68.80
6869;BME280;3473;42.604;23.496;2022-08-25T07:14:35;20255.03;;;-140.19;68.59
6869;BME280;3473;42.604;23.496;2022-08-25T07:16:07;20443.34;;;-140.19;67.23
6869;BME280;3473;42.604;23.496;2022-08-25T07:17:41;20235.63;;;-140.19;68.15
6869;BME280;3473;42.604;23.496;2022-08-25T07:19:13;20404.50;;;-140.19;67.59
6869;BME280;3473;42.604;23.496;2022-08-25T07:20:45;19461.22;;;-140.19;66.56
6869;BME280;3473;42.604;23.496;2022-08-25T07:22:17;20464.69;;;-140.19;66.75
6869;BME280;3473;42.604;23.496;2022-08-25T07:23:49;20276.38;;;-140.19;66.30
6869;BME280;3473;42.604;23.496;2022-08-25T07:25:20;20253.09;;;-140.19;66.25
6869;BME280;3473;42.604;23.496;2022-08-25T07:26:52;20328.81;;;-140.19;65.74
6869;BME280;3473;42.604;23.496;2022-08-25T07:28:24;20256.97;;;-140.19;66.54
6869;BME280;3473;42.604;23.496;2022-08-25T07:29:56;20402.56;;;-140.19;66.09
6869;BME280;3473;42.604;23.496;2022-08-25T07:31:28;20243.38;;;-140.19;67.44
6869;BME280;3473;42.604;23.496;2022-08-25T07:33:01;20371.50;;;-140.19;66.27
6869;BME280;3473;42.604;23.496;2022-08-25T07:34:33;20491.88;;;-140.19;66.43
6869;BME280;3473;42.604;23.496;2022-08-25T07:36:22;20189.03;;;-140.19;64.60
6869;BME280;3473;42.604;23.496;2022-08-25T07:37:55;20045.41;;;-140.19;64.68
6869;BME280;3473;42.604;23.496;2022-08-25T07:39:27;20276.38;;;-140.19;63.28
6869;BME280;3473;42.604;23.496;2022-08-25T07:41:02;20247.28;;;-140.19;62.60
6869;BME280;3473;42.604;23.496;2022-08-25T07:42:34;20192.91;;;-140.19;62.22
6869;BME280;3473;42.604;23.496;2022-08-25T07:44:08;20169.63;;;-140.19;61.17
6869;BME280;3473;42.604;23.496;2022-08-25T07:45:41;20352.09;;;-140.19;61.21
6869;BME280;3473;42.604;23.496;2022-08-25T07:47:13;20268.63;;;-140.19;60.42
6869;BME280;3473;42.604;23.496;2022-08-25T07:48:46;20214.28;;;-140.19;59.55
6869;BME280;3473;42.604;23.496;2022-08-25T07:50:18;20262.81;;;-140.19;57.92
6869;BME280;3473;42.604;23.496;2022-08-25T07:51:51;20321.03;;;-140.19;57.88
6869;BME280;3473;42.604;23.496;2022-08-25T07:53:23;20208.44;;;-140.19;57.15
6869;BME280;3473;42.604;23.496;2022-08-25T07:54:55;20313.28;;;-140.19;57.37
6869;BME280;3473;42.604;23.496;2022-08-25T07:56:25;20385.09;;;-140.19;54.94
6869;BME280;3473;42.604;23.496;2022-08-25T07:57:57;20396.75;;;-140.19;53.43
6869;BME280;3473;42.604;23.496;2022-08-25T07:59:30;20239.50;;;-140.19;52.98
6869;BME280;3473;42.604;23.496;2022-08-25T08:01:02;20321.03;;;-140.19;50.17
6869;BME280;3473;42.604;23.496;2022-08-25T08:02:36;20480.22;;;-140.19;49.86
6869;BME280;3473;42.604;23.496;2022-08-25T08:04:09;20528.75;;;-140.19;49.85
6869;BME280;3473;42.604;23.496;2022-08-25T08:05:41;20588.94;;;-140.19;49.85